Time;durP1;ratioP1;P1;durP2;ratioP2;P2;SDS_P1;SDS_P2;PMS_P1;PMS_P2;Temp;Humidity;BMP_temperature;BMP_pressure;BME280_temperature;BME280_humidity;BME280_pressure;Samples;Min_cycle;Max_cycle;Signal;HPM_P1;HPM_P2
2023/06/21 00:02:11;;;;;;;;;;;20.70;99.90;;;;;;8396854;28;19924;-72
2023/06/21 00:06:13;;;;;;;;;;;20.70;99.90;;;;;;8406528;28;19924;-73
2023/06/21 00:10:14;;;;;;;;;;;20.60;99.90;;;;;;8415787;28;19951;-73
2023/06/21 00:14:16;;;;;;;;;;;20.60;99.90;;;;;;8402297;28;19936;-73
2023/06/21 00:18:18;;;;;;;;;;;20.50;99.90;;;;;;8384883;28;19928;-73
2023/06/21 00:22:21;;;;;;;;;;;20.60;99.90;;;;;;8398847;28;19999;-73
2023/06/21 00:26:23;;;;;;;;;;;20.50;99.90;;;;;;8406719;28;19931;-73
2023/06/21 00:30:25;;;;;;;;;;;20.50;99.90;;;;;;8408970;28;19924;-73
2023/06/21 00:34:27;;;;;;;;;;;20.50;99.90;;;;;;8404964;28;19924;-73
2023/06/21 00:38:34;;;;;;;;;;;20.50;99.90;;;;;;8408720;28;19931;-73
2023/06/21 00:42:37;;;;;;;;;;;20.50;99.90;;;;;;8404090;28;19932;-73
2023/06/21 00:46:39;;;;;;;;;;;20.50;99.90;;;;;;8385635;28;19983;-73
2023/06/21 00:50:41;;;;;;;;;;;20.40;99.90;;;;;;8404582;28;19924;-73
2023/06/21 00:54:43;;;;;;;;;;;20.40;99.90;;;;;;8408408;28;19924;-73
2023/06/21 00:58:45;;;;;;;;;;;20.30;99.90;;;;;;8408512;28;20406;-72
2023/06/21 01:02:50;;;;;;;;;;;20.30;99.90;;;;;;8406324;28;19932;-73
2023/06/21 01:06:52;;;;;;;;;;;20.20;99.90;;;;;;8403832;28;20403;-74
2023/06/21 01:11:13;;;;;;;;;;;20.20;99.90;;;;;;8418085;28;20034;-73
2023/06/21 01:15:20;;;;;;;;;;;20.10;99.90;;;;;;8404897;28;19939;-73
2023/06/21 01:19:42;;;;;;;;;;;20.10;99.90;;;;;;8382391;28;19928;-73
2023/06/21 01:23:53;;;;;;;;;;;20.10;99.90;;;;;;8412963;28;20346;-73
2023/06/21 01:28:07;;;;;;;;;;;20.00;99.90;;;;;;8411032;28;19998;-73
2023/06/21 01:32:10;;;;;;;;;;;20.00;99.90;;;;;;8416056;28;19928;-73
2023/06/21 01:36:12;;;;;;;;;;;20.00;99.90;;;;;;8416209;28;19977;-72
2023/06/21 01:40:15;;;;;;;;;;;20.00;99.90;;;;;;8402685;28;20375;-73
2023/06/21 01:44:17;;;;;;;;;;;20.00;99.90;;;;;;8420864;27;19924;-73
2023/06/21 01:48:19;;;;;;;;;;;20.00;99.90;;;;;;8407817;28;20696;-73
2023/06/21 01:52:21;;;;;;;;;;;20.00;99.90;;;;;;8408759;28;19925;-73
2023/06/21 01:56:23;;;;;;;;;;;19.90;99.90;;;;;;8428529;27;19932;-73
2023/06/21 02:00:26;;;;;;;;;;;19.90;99.90;;;;;;8408800;28;19986;-73
2023/06/21 02:04:29;;;;;;;;;;;19.90;99.90;;;;;;8415435;28;19940;-72
2023/06/21 02:08:32;;;;;;;;;;;19.90;99.90;;;;;;8415154;28;20018;-73
2023/06/21 02:12:34;;;;;;;;;;;19.90;99.90;;;;;;8405241;28;19932;-73
2023/06/21 02:16:36;;;;;;;;;;;19.80;99.90;;;;;;8411584;28;20292;-73
2023/06/21 02:20:38;;;;;;;;;;;19.80;99.90;;;;;;8415946;28;19930;-73
2023/06/21 02:24:39;;;;;;;;;;;19.80;99.90;;;;;;8400579;28;20417;-73
2023/06/21 02:28:41;;;;;;;;;;;19.90;99.90;;;;;;8415969;28;19924;-72
2023/06/21 02:32:43;;;;;;;;;;;19.80;99.90;;;;;;8415779;28;19932;-72
2023/06/21 02:36:53;;;;;;;;;;;19.90;99.90;;;;;;8417327;28;19947;-73
2023/06/21 02:40:55;;;;;;;;;;;19.90;99.90;;;;;;8405926;28;20077;-72
2023/06/21 02:44:56;;;;;;;;;;;19.90;99.90;;;;;;8415487;28;19924;-73
2023/06/21 02:48:58;;;;;;;;;;;19.90;99.90;;;;;;8402347;28;19925;-72
2023/06/21 02:53:01;;;;;;;;;;;19.90;99.90;;;;;;8384227;28;19927;-73
2023/06/21 02:57:03;;;;;;;;;;;19.80;99.90;;;;;;8411472;28;19929;-73
2023/06/21 03:01:05;;;;;;;;;;;19.90;99.90;;;;;;8429709;27;19950;-73
2023/06/21 03:05:07;;;;;;;;;;;19.90;99.90;;;;;;8409431;28;19932;-73
2023/06/21 03:09:09;;;;;;;;;;;19.90;99.90;;;;;;8406659;28;20390;-73
2023/06/21 03:13:11;;;;;;;;;;;19.90;99.90;;;;;;8394647;28;19925;-73
2023/06/21 03:17:12;;;;;;;;;;;19.90;99.90;;;;;;8388330;28;19963;-73
2023/06/21 03:21:14;;;;;;;;;;;19.90;99.90;;;;;;8409138;28;20367;-73
2023/06/21 03:25:16;;;;;;;;;;;19.90;99.90;;;;;;8407833;28;19929;-73
2023/06/21 03:29:17;;;;;;;;;;;19.90;99.90;;;;;;8399649;28;20419;-73
2023/06/21 03:33:19;;;;;;;;;;;19.90;99.90;;;;;;8418417;27;20268;-73
2023/06/21 03:37:21;;;;;;;;;;;19.90;99.90;;;;;;8420592;28;19932;-73
2023/06/21 03:41:22;;;;;;;;;;;19.90;99.90;;;;;;8414930;27;19924;-73
2023/06/21 03:45:24;;;;;;;;;;;19.90;99.90;;;;;;8400352;28;19927;-73
2023/06/21 03:49:26;;;;;;;;;;;19.90;99.90;;;;;;8389095;28;19936;-73
2023/06/21 03:53:27;;;;;;;;;;;19.90;99.90;;;;;;8415287;28;20287;-73
2023/06/21 03:57:29;;;;;;;;;;;19.90;99.90;;;;;;8410061;28;19928;-73
2023/06/21 04:01:31;;;;;;;;;;;19.80;99.90;;;;;;8389489;28;19938;-73
2023/06/21 04:05:33;;;;;;;;;;;19.80;99.90;;;;;;8408859;28;20843;-72
2023/06/21 04:09:34;;;;;;;;;;;19.80;99.90;;;;;;8405635;28;19928;-73
2023/06/21 04:13:36;;;;;;;;;;;19.80;99.90;;;;;;8414330;28;19931;-74
2023/06/21 04:17:38;;;;;;;;;;;19.80;99.90;;;;;;8412226;28;19928;-73
2023/06/21 04:21:40;;;;;;;;;;;19.80;99.90;;;;;;8419636;28;19967;-72
2023/06/21 04:25:41;;;;;;;;;;;19.80;99.90;;;;;;8404279;28;19932;-73
2023/06/21 04:29:43;;;;;;;;;;;19.80;99.90;;;;;;8401916;28;19932;-73
2023/06/21 04:33:45;;;;;;;;;;;19.80;99.90;;;;;;8415316;28;19938;-74
2023/06/21 04:37:47;;;;;;;;;;;19.90;99.90;;;;;;8401702;28;19928;-73
2023/06/21 04:41:51;;;;;;;;;;;19.90;99.90;;;;;;8421333;28;19978;-73
2023/06/21 04:45:53;;;;;;;;;;;20.00;99.90;;;;;;8408323;28;19931;-74
2023/06/21 04:49:54;;;;;;;;;;;20.00;99.90;;;;;;8389201;28;20334;-73
2023/06/21 04:54:02;;;;;;;;;;;20.00;99.90;;;;;;8415888;28;19930;-73
2023/06/21 04:58:05;;;;;;;;;;;20.10;99.90;;;;;;8400846;28;19962;-72
2023/06/21 05:02:07;;;;;;;;;;;20.10;99.90;;;;;;8403942;28;19924;-73
2023/06/21 05:06:09;;;;;;;;;;;20.20;99.90;;;;;;8406759;28;20268;-73
2023/06/21 05:10:10;;;;;;;;;;;20.20;99.90;;;;;;8405561;28;20599;-73
2023/06/21 05:14:12;;;;;;;;;;;20.30;99.90;;;;;;8397398;28;20410;-73
2023/06/21 05:18:14;;;;;;;;;;;20.40;99.90;;;;;;8389079;28;19932;-73
2023/06/21 05:22:15;;;;;;;;;;;20.40;99.90;;;;;;8410617;28;20387;-72
2023/06/21 05:26:17;;;;;;;;;;;20.50;99.90;;;;;;8401744;28;19931;-73
2023/06/21 05:30:19;;;;;;;;;;;20.60;99.90;;;;;;8411293;28;20383;-73
2023/06/21 05:34:20;;;;;;;;;;;20.60;99.90;;;;;;8387989;28;19924;-72
2023/06/21 05:38:22;;;;;;;;;;;20.70;99.90;;;;;;8388735;28;19924;-73
2023/06/21 05:42:24;;;;;;;;;;;20.70;99.90;;;;;;8387765;28;19939;-73
2023/06/21 05:46:25;;;;;;;;;;;20.80;99.90;;;;;;8384946;28;19935;-72
2023/06/21 05:50:30;;;;;;;;;;;20.80;99.90;;;;;;8393063;28;19930;-73
2023/06/21 05:54:32;;;;;;;;;;;20.80;99.90;;;;;;8398149;28;20653;-72
2023/06/21 05:58:33;;;;;;;;;;;20.80;99.90;;;;;;8382853;28;20509;-73
2023/06/21 06:02:35;;;;;;;;;;;20.90;99.90;;;;;;8368069;28;20334;-73
2023/06/21 06:06:39;;;;;;;;;;;21.00;99.90;;;;;;8383963;28;19932;-72
2023/06/21 06:10:41;;;;;;;;;;;20.90;99.90;;;;;;8376491;28;20346;-72
2023/06/21 06:14:42;;;;;;;;;;;20.90;99.90;;;;;;8382655;28;19932;-72
2023/06/21 06:18:44;;;;;;;;;;;20.80;99.90;;;;;;8416344;28;19924;-72
2023/06/21 06:22:46;;;;;;;;;;;20.70;99.90;;;;;;8409565;28;20343;-72
2023/06/21 06:26:47;;;;;;;;;;;20.70;99.90;;;;;;8428757;27;19969;-72
2023/06/21 06:30:49;;;;;;;;;;;20.60;99.90;;;;;;8394463;28;19928;-72
2023/06/21 06:34:51;;;;;;;;;;;20.60;99.90;;;;;;8395308;28;19928;-72
2023/06/21 06:38:52;;;;;;;;;;;20.50;99.90;;;;;;8410987;28;19924;-72
2023/06/21 06:42:54;;;;;;;;;;;20.40;99.90;;;;;;8417983;28;19924;-73
2023/06/21 06:46:56;;;;;;;;;;;20.40;99.90;;;;;;8421029;28;19932;-73
2023/06/21 06:50:58;;;;;;;;;;;20.50;99.90;;;;;;8407677;28;19935;-73
2023/06/21 06:55:00;;;;;;;;;;;20.50;99.90;;;;;;8420960;28;19924;-72
2023/06/21 06:59:02;;;;;;;;;;;20.60;99.90;;;;;;8397238;28;19954;-73
2023/06/21 07:03:04;;;;;;;;;;;20.70;99.90;;;;;;8424034;28;19924;-73
2023/06/21 07:07:05;;;;;;;;;;;20.80;99.90;;;;;;8419232;28;20379;-73
2023/06/21 07:11:07;;;;;;;;;;;20.80;99.90;;;;;;8418288;28;19935;-73
2023/06/21 07:15:09;;;;;;;;;;;20.90;99.90;;;;;;8418684;28;19939;-73
2023/06/21 07:19:10;;;;;;;;;;;20.90;99.90;;;;;;8413691;28;19932;-75
2023/06/21 07:23:12;;;;;;;;;;;21.00;99.90;;;;;;8423478;27;19930;-73
2023/06/21 07:27:14;;;;;;;;;;;21.00;99.90;;;;;;8418522;28;19964;-72
2023/06/21 07:31:16;;;;;;;;;;;21.10;99.90;;;;;;8399803;28;20288;-72
2023/06/21 07:35:18;;;;;;;;;;;21.20;99.90;;;;;;8411959;28;19931;-72
2023/06/21 07:39:20;;;;;;;;;;;21.30;99.90;;;;;;8413149;28;19924;-73
2023/06/21 07:43:21;;;;;;;;;;;21.40;99.90;;;;;;8416403;28;19939;-73
2023/06/21 07:47:23;;;;;;;;;;;21.40;99.90;;;;;;8404666;28;20291;-72
2023/06/21 07:51:25;;;;;;;;;;;21.50;99.90;;;;;;8406556;28;20410;-72
2023/06/21 07:55:27;;;;;;;;;;;21.50;99.90;;;;;;8391472;28;19977;-73
2023/06/21 07:59:29;;;;;;;;;;;21.60;99.90;;;;;;8404979;28;19936;-72
2023/06/21 08:03:31;;;;;;;;;;;21.60;99.90;;;;;;8404725;28;19932;-73
2023/06/21 08:07:33;;;;;;;;;;;21.60;99.90;;;;;;8413565;28;19933;-73
2023/06/21 08:11:34;;;;;;;;;;;21.70;99.90;;;;;;8401712;28;19934;-73
2023/06/21 08:15:36;;;;;;;;;;;21.70;99.90;;;;;;8406744;28;19951;-73
2023/06/21 08:19:38;;;;;;;;;;;21.80;99.90;;;;;;8423367;28;19924;-74
2023/06/21 08:23:39;;;;;;;;;;;21.80;99.90;;;;;;8419284;27;19924;-72
2023/06/21 08:27:41;;;;;;;;;;;21.80;99.90;;;;;;8422026;28;19932;-73
2023/06/21 08:31:42;;;;;;;;;;;21.80;99.90;;;;;;8417032;28;19935;-74
2023/06/21 08:35:44;;;;;;;;;;;21.80;99.90;;;;;;8410957;28;20241;-73
2023/06/21 08:39:46;;;;;;;;;;;21.80;99.90;;;;;;8412491;28;19932;-74
2023/06/21 08:43:48;;;;;;;;;;;21.90;99.90;;;;;;8410984;28;19932;-73
2023/06/21 08:47:51;;;;;;;;;;;21.90;99.90;;;;;;8419864;27;19982;-75
2023/06/21 08:51:53;;;;;;;;;;;22.00;99.90;;;;;;8405371;28;20026;-72
2023/06/21 08:55:56;;;;;;;;;;;22.00;99.90;;;;;;8408559;28;19932;-74
2023/06/21 09:00:00;;;;;;;;;;;22.00;99.90;;;;;;8406841;28;19950;-74
2023/06/21 09:04:03;;;;;;;;;;;22.00;99.90;;;;;;8408028;28;20277;-74
2023/06/21 09:08:06;;;;;;;;;;;22.10;99.90;;;;;;8415820;28;19924;-74
2023/06/21 09:12:12;;;;;;;;;;;22.10;99.90;;;;;;8411117;28;20704;-73
2023/06/21 09:16:14;;;;;;;;;;;22.10;99.90;;;;;;8393647;28;19960;-73
2023/06/21 09:20:17;;;;;;;;;;;22.20;99.90;;;;;;8407564;28;19938;-73
2023/06/21 09:24:20;;;;;;;;;;;22.30;99.90;;;;;;8404187;28;20051;-74
2023/06/21 09:28:22;;;;;;;;;;;22.40;99.90;;;;;;8412834;28;19932;-72
2023/06/21 09:32:23;;;;;;;;;;;22.40;99.90;;;;;;8401843;28;20551;-73
2023/06/21 09:36:25;;;;;;;;;;;22.50;99.90;;;;;;8412631;28;19930;-74
2023/06/21 09:40:27;;;;;;;;;;;22.50;99.90;;;;;;8409296;28;20010;-74
2023/06/21 09:44:33;;;;;;;;;;;22.60;99.90;;;;;;8422025;28;19927;-73
2023/06/21 09:48:35;;;;;;;;;;;22.70;99.90;;;;;;8399476;28;19932;-72
2023/06/21 09:52:44;;;;;;;;;;;22.70;99.90;;;;;;8410560;28;20463;-74
2023/06/21 09:56:46;;;;;;;;;;;22.80;99.90;;;;;;8419949;27;20019;-73
2023/06/21 10:00:47;;;;;;;;;;;22.90;99.90;;;;;;8405549;28;19924;-73
2023/06/21 10:04:54;;;;;;;;;;;22.90;99.90;;;;;;8412888;28;20006;-75
2023/06/21 10:08:56;;;;;;;;;;;23.00;99.90;;;;;;8411745;28;19929;-73
2023/06/21 10:12:57;;;;;;;;;;;23.00;99.90;;;;;;8420635;28;19935;-73
2023/06/21 10:17:00;;;;;;;;;;;23.10;99.90;;;;;;8422244;28;19931;-73
2023/06/21 10:21:03;;;;;;;;;;;23.20;99.90;;;;;;8419457;28;19932;-73
2023/06/21 10:25:05;;;;;;;;;;;23.10;99.90;;;;;;8406797;28;19928;-74
2023/06/21 10:29:07;;;;;;;;;;;23.20;99.90;;;;;;8414993;28;19946;-73
2023/06/21 10:33:09;;;;;;;;;;;23.30;99.90;;;;;;8420371;28;19924;-74
2023/06/21 10:37:15;;;;;;;;;;;23.40;99.90;;;;;;8418234;28;19964;-73
2023/06/21 10:41:17;;;;;;;;;;;23.40;99.90;;;;;;8407236;28;19928;-74
2023/06/21 10:45:18;;;;;;;;;;;23.50;99.90;;;;;;8419384;28;19978;-73
2023/06/21 10:49:20;;;;;;;;;;;23.60;99.90;;;;;;8416405;28;19923;-73
2023/06/21 10:53:23;;;;;;;;;;;23.70;99.90;;;;;;8401925;28;19931;-73
2023/06/21 10:57:26;;;;;;;;;;;23.70;99.90;;;;;;8410455;28;19928;-74
2023/06/21 11:01:28;;;;;;;;;;;23.70;99.90;;;;;;8393597;28;19978;-73
2023/06/21 11:05:30;;;;;;;;;;;23.70;99.90;;;;;;8418676;28;19994;-74
2023/06/21 11:09:32;;;;;;;;;;;23.80;99.90;;;;;;8419790;28;19981;-73
2023/06/21 11:13:37;;;;;;;;;;;23.80;99.90;;;;;;8423142;28;20268;-74
2023/06/21 11:17:39;;;;;;;;;;;24.00;99.90;;;;;;8417644;28;20438;-74
2023/06/21 11:21:41;;;;;;;;;;;24.10;99.90;;;;;;8414833;28;19978;-74
2023/06/21 11:25:53;;;;;;;;;;;24.20;99.90;;;;;;8404815;28;19928;-74
2023/06/21 11:29:59;;;;;;;;;;;24.20;99.90;;;;;;8416114;28;20481;-73
2023/06/21 11:34:03;;;;;;;;;;;24.20;99.90;;;;;;8393085;28;19935;-75
2023/06/21 11:38:07;;;;;;;;;;;24.20;99.90;;;;;;8392944;28;19928;-75
2023/06/21 11:42:15;;;;;;;;;;;24.30;99.90;;;;;;8409163;28;19969;-74
2023/06/21 11:46:23;;;;;;;;;;;24.30;99.90;;;;;;8409229;28;19924;-73
2023/06/21 11:50:30;;;;;;;;;;;24.30;99.90;;;;;;8417244;28;19924;-74
2023/06/21 11:54:33;;;;;;;;;;;24.40;99.90;;;;;;8401072;28;20429;-74
2023/06/21 11:58:35;;;;;;;;;;;24.40;99.90;;;;;;8410418;28;20326;-74
2023/06/21 12:02:37;;;;;;;;;;;24.50;99.90;;;;;;8400477;28;19965;-73
2023/06/21 12:06:38;;;;;;;;;;;24.50;99.90;;;;;;8427147;28;20041;-74
2023/06/21 12:10:40;;;;;;;;;;;24.60;99.90;;;;;;8425593;28;19935;-74
2023/06/21 12:14:42;;;;;;;;;;;24.60;99.90;;;;;;8425477;28;19936;-73
2023/06/21 12:18:44;;;;;;;;;;;24.70;99.90;;;;;;8417949;28;20154;-74
2023/06/21 12:22:48;;;;;;;;;;;24.80;99.90;;;;;;8404209;28;19927;-74
2023/06/21 12:26:52;;;;;;;;;;;24.80;99.90;;;;;;8407439;28;19978;-74
2023/06/21 12:31:03;;;;;;;;;;;24.80;99.90;;;;;;8422109;28;19924;-73
2023/06/21 12:35:06;;;;;;;;;;;24.80;99.90;;;;;;8416066;28;20018;-73
2023/06/21 12:39:08;;;;;;;;;;;24.80;99.90;;;;;;8408725;28;19951;-74
2023/06/21 12:43:09;;;;;;;;;;;24.90;99.90;;;;;;8411951;28;19924;-73
2023/06/21 12:47:12;;;;;;;;;;;24.90;99.90;;;;;;8419775;28;19928;-74
2023/06/21 12:51:19;;;;;;;;;;;24.90;99.90;;;;;;8412725;28;19958;-74
2023/06/21 12:55:21;;;;;;;;;;;25.00;99.90;;;;;;8426003;27;19936;-74
2023/06/21 12:59:23;;;;;;;;;;;25.00;99.90;;;;;;8419892;28;19990;-73
2023/06/21 13:03:25;;;;;;;;;;;25.10;99.90;;;;;;8409667;28;19924;-73
2023/06/21 13:07:27;;;;;;;;;;;25.10;99.90;;;;;;8406118;28;19925;-74
2023/06/21 13:11:28;;;;;;;;;;;25.20;99.90;;;;;;8415685;28;19958;-73
2023/06/21 13:15:30;;;;;;;;;;;25.20;99.90;;;;;;8411433;28;19931;-74
2023/06/21 13:19:32;;;;;;;;;;;25.20;99.90;;;;;;8412025;28;20370;-74
2023/06/21 13:23:34;;;;;;;;;;;25.20;99.90;;;;;;8422398;28;19932;-74
2023/06/21 13:27:36;;;;;;;;;;;25.20;99.90;;;;;;8424275;28;20022;-74
2023/06/21 13:31:37;;;;;;;;;;;25.30;99.90;;;;;;8427006;28;19930;-74
2023/06/21 13:35:40;;;;;;;;;;;25.30;99.90;;;;;;8426376;28;20005;-75
2023/06/21 13:39:42;;;;;;;;;;;25.20;99.90;;;;;;8392639;28;20352;-74
2023/06/21 13:43:44;;;;;;;;;;;25.20;99.90;;;;;;8421262;28;20314;-74
2023/06/21 13:47:46;;;;;;;;;;;25.30;99.90;;;;;;8421444;28;19923;-75
2023/06/21 13:51:47;;;;;;;;;;;25.30;99.90;;;;;;8428349;27;19925;-75
2023/06/21 13:55:49;;;;;;;;;;;25.20;99.90;;;;;;8418494;28;19924;-74
2023/06/21 13:59:52;;;;;;;;;;;25.20;99.90;;;;;;8429234;28;20371;-74
2023/06/21 14:03:53;;;;;;;;;;;25.20;99.90;;;;;;8403061;28;19924;-74
2023/06/21 14:07:55;;;;;;;;;;;25.30;99.90;;;;;;8419118;28;19971;-74
2023/06/21 14:11:57;;;;;;;;;;;25.30;99.90;;;;;;8421307;28;19932;-74
2023/06/21 14:15:59;;;;;;;;;;;25.30;99.90;;;;;;8427629;28;19949;-73
2023/06/21 14:20:03;;;;;;;;;;;25.30;99.90;;;;;;8429505;28;19954;-73
2023/06/21 14:24:05;;;;;;;;;;;25.30;99.90;;;;;;8397656;28;19929;-73
2023/06/21 14:28:07;;;;;;;;;;;25.40;99.90;;;;;;8401644;28;20321;-73
2023/06/21 14:32:09;;;;;;;;;;;25.40;99.90;;;;;;8418660;28;19928;-74
2023/06/21 14:36:10;;;;;;;;;;;25.50;99.90;;;;;;8404617;28;20045;-74
2023/06/21 14:40:12;;;;;;;;;;;25.60;99.90;;;;;;8401936;28;19955;-73
2023/06/21 14:44:14;;;;;;;;;;;25.60;99.90;;;;;;8385676;28;19973;-73
2023/06/21 14:48:19;;;;;;;;;;;25.60;99.90;;;;;;8407621;28;20755;-73
2023/06/21 14:52:21;;;;;;;;;;;25.60;99.90;;;;;;8414936;28;19933;-75
2023/06/21 14:56:23;;;;;;;;;;;25.60;99.90;;;;;;8420721;28;19932;-73
2023/06/21 15:00:25;;;;;;;;;;;25.60;99.90;;;;;;8415144;28;20375;-75
2023/06/21 15:04:27;;;;;;;;;;;25.60;99.90;;;;;;8423280;28;19931;-73
2023/06/21 15:08:30;;;;;;;;;;;25.60;99.90;;;;;;8396071;28;19924;-72
2023/06/21 15:12:31;;;;;;;;;;;25.50;99.90;;;;;;8405055;28;19968;-74
2023/06/21 15:16:41;;;;;;;;;;;25.60;99.90;;;;;;8405006;28;20580;-74
2023/06/21 15:20:43;;;;;;;;;;;25.60;99.90;;;;;;8403798;28;19932;-73
2023/06/21 15:24:45;;;;;;;;;;;25.50;99.90;;;;;;8404345;28;19924;-73
2023/06/21 15:28:47;;;;;;;;;;;25.50;99.90;;;;;;8420767;28;19928;-73
2023/06/21 15:32:48;;;;;;;;;;;25.50;99.90;;;;;;8417301;28;20390;-74
2023/06/21 15:36:50;;;;;;;;;;;25.50;99.90;;;;;;8422138;28;19931;-73
2023/06/21 15:40:52;;;;;;;;;;;25.50;99.90;;;;;;8407950;28;19932;-74
2023/06/21 15:44:54;;;;;;;;;;;25.60;99.90;;;;;;8429695;28;19932;-74
2023/06/21 15:48:56;;;;;;;;;;;25.70;99.90;;;;;;8407513;28;19999;-73
2023/06/21 15:52:57;;;;;;;;;;;25.80;99.90;;;;;;8426316;28;19924;-74
2023/06/21 15:57:01;;;;;;;;;;;25.90;99.90;;;;;;8418317;28;20054;-73
2023/06/21 16:01:02;;;;;;;;;;;25.90;99.90;;;;;;8416554;28;19927;-74
2023/06/21 16:05:04;;;;;;;;;;;26.00;99.90;;;;;;8425645;27;19932;-73
2023/06/21 16:09:07;;;;;;;;;;;26.10;99.90;;;;;;8415011;27;19924;-72
2023/06/21 16:13:08;;;;;;;;;;;26.30;99.90;;;;;;8424847;27;19938;-73
2023/06/21 16:17:11;;;;;;;;;;;26.40;99.90;;;;;;8401300;28;20064;-73
2023/06/21 16:21:13;;;;;;;;;;;26.30;99.90;;;;;;8409544;28;19968;-73
2023/06/21 16:25:15;;;;;;;;;;;26.40;99.90;;;;;;8416506;28;19970;-73
2023/06/21 16:29:17;;;;;;;;;;;26.50;99.90;;;;;;8400479;28;19928;-73
2023/06/21 16:33:18;;;;;;;;;;;26.80;99.90;;;;;;8419036;28;19924;-74
2023/06/21 16:37:21;;;;;;;;;;;27.10;99.90;;;;;;8408298;28;19967;-74
2023/06/21 16:41:22;;;;;;;;;;;27.50;99.90;;;;;;8408493;28;19936;-74
2023/06/21 16:45:24;;;;;;;;;;;27.90;99.90;;;;;;8404934;28;19933;-73
2023/06/21 16:49:25;;;;;;;;;;;28.20;99.60;;;;;;8410053;28;19954;-73
2023/06/21 16:53:29;;;;;;;;;;;28.30;99.60;;;;;;8419695;28;19924;-73
2023/06/21 16:57:30;;;;;;;;;;;28.40;99.90;;;;;;8382709;28;19936;-74
2023/06/21 17:01:32;;;;;;;;;;;28.40;99.90;;;;;;8424255;28;19992;-73
2023/06/21 17:05:34;;;;;;;;;;;28.30;98.70;;;;;;8429669;28;19924;-74
2023/06/21 17:09:35;;;;;;;;;;;28.20;99.90;;;;;;8429470;28;19947;-74
2023/06/21 17:13:37;;;;;;;;;;;27.90;99.90;;;;;;8430631;28;19924;-73
2023/06/21 17:17:40;;;;;;;;;;;27.60;99.90;;;;;;8416037;28;19932;-73
2023/06/21 17:21:41;;;;;;;;;;;27.30;99.90;;;;;;8417121;28;20376;-74
2023/06/21 17:25:43;;;;;;;;;;;27.00;99.90;;;;;;8433461;28;20011;-73
2023/06/21 17:29:46;;;;;;;;;;;26.90;99.90;;;;;;8382931;28;19928;-73
2023/06/21 17:33:48;;;;;;;;;;;26.70;99.90;;;;;;8389469;28;19930;-73
2023/06/21 17:37:50;;;;;;;;;;;26.50;99.90;;;;;;8373087;28;19955;-73
2023/06/21 17:41:52;;;;;;;;;;;26.50;99.90;;;;;;8390505;28;19924;-73
2023/06/21 17:45:53;;;;;;;;;;;26.30;99.90;;;;;;8386789;28;19925;-73
2023/06/21 17:49:55;;;;;;;;;;;26.20;99.90;;;;;;8387449;28;19997;-74
2023/06/21 17:53:58;;;;;;;;;;;26.00;99.90;;;;;;8395013;28;20303;-73
2023/06/21 17:58:00;;;;;;;;;;;25.90;99.90;;;;;;8390013;28;19925;-74
2023/06/21 18:02:01;;;;;;;;;;;25.90;99.90;;;;;;8395664;28;20292;-73
2023/06/21 18:06:06;;;;;;;;;;;25.90;99.90;;;;;;8388090;28;19929;-74
2023/06/21 18:10:08;;;;;;;;;;;25.80;99.90;;;;;;8391477;28;19932;-75
2023/06/21 18:14:10;;;;;;;;;;;25.80;99.90;;;;;;8381254;28;19928;-73
2023/06/21 18:18:11;;;;;;;;;;;25.80;99.90;;;;;;8369838;28;19932;-74
2023/06/21 18:22:13;;;;;;;;;;;25.80;99.90;;;;;;8382370;28;21394;-74
2023/06/21 18:36:37;;;;;;;;;;;25.70;99.90;;;;;;8421041;28;19958;-74
2023/06/21 18:40:40;;;;;;;;;;;25.60;99.90;;;;;;8424551;28;19947;-74
2023/06/21 18:44:42;;;;;;;;;;;25.60;99.90;;;;;;8414691;28;19925;-74
2023/06/21 18:48:48;;;;;;;;;;;25.50;99.90;;;;;;8443062;27;20394;-74
2023/06/21 18:52:50;;;;;;;;;;;25.40;99.90;;;;;;8422246;28;19932;-74
2023/06/21 18:56:52;;;;;;;;;;;25.30;99.90;;;;;;8414312;28;19924;-74
2023/06/21 19:00:54;;;;;;;;;;;25.20;99.90;;;;;;8421279;28;19938;-75
2023/06/21 19:04:55;;;;;;;;;;;25.20;99.90;;;;;;8390496;28;19954;-74
2023/06/21 19:08:57;;;;;;;;;;;25.10;99.90;;;;;;8410421;28;19925;-74
2023/06/21 19:12:59;;;;;;;;;;;25.00;99.90;;;;;;8426464;28;20292;-73
2023/06/21 19:17:01;;;;;;;;;;;24.90;99.90;;;;;;8425731;28;20255;-73
2023/06/21 19:21:02;;;;;;;;;;;24.90;99.90;;;;;;8422554;28;19936;-74
2023/06/21 19:25:04;;;;;;;;;;;24.80;99.90;;;;;;8438051;28;20363;-74
2023/06/21 19:29:07;;;;;;;;;;;24.80;99.90;;;;;;8435617;28;19924;-74
2023/06/21 19:33:08;;;;;;;;;;;24.70;99.90;;;;;;8428293;28;20405;-73
2023/06/21 19:37:10;;;;;;;;;;;24.60;99.90;;;;;;8423977;28;19930;-73
2023/06/21 19:41:12;;;;;;;;;;;24.50;99.90;;;;;;8415880;28;19924;-73
2023/06/21 19:45:13;;;;;;;;;;;24.40;99.90;;;;;;8408142;28;19928;-73
2023/06/21 19:49:17;;;;;;;;;;;24.30;99.90;;;;;;8411193;28;19963;-73
2023/06/21 19:53:19;;;;;;;;;;;24.10;99.90;;;;;;8420690;28;20703;-73
2023/06/21 19:57:20;;;;;;;;;;;24.00;99.90;;;;;;8410489;28;19924;-73
2023/06/21 20:01:22;;;;;;;;;;;23.90;99.90;;;;;;8407710;28;19924;-73
2023/06/21 20:05:24;;;;;;;;;;;23.90;99.90;;;;;;8413528;28;19996;-73
2023/06/21 20:09:26;;;;;;;;;;;23.80;99.90;;;;;;8427100;27;19933;-73
2023/06/21 20:13:28;;;;;;;;;;;23.70;99.90;;;;;;8424540;28;20330;-73
2023/06/21 20:17:29;;;;;;;;;;;23.60;99.90;;;;;;8407702;28;19924;-73
2023/06/21 20:21:31;;;;;;;;;;;23.50;99.90;;;;;;8405959;28;19925;-73
2023/06/21 20:25:33;;;;;;;;;;;23.40;99.90;;;;;;8422929;28;19928;-73
2023/06/21 20:29:35;;;;;;;;;;;23.30;99.90;;;;;;8433763;27;20352;-73
2023/06/21 20:33:36;;;;;;;;;;;23.20;99.90;;;;;;8416340;28;20363;-74
2023/06/21 20:37:38;;;;;;;;;;;23.10;99.90;;;;;;8432013;27;20352;-73
2023/06/21 20:41:41;;;;;;;;;;;23.10;99.90;;;;;;8414327;28;19924;-73
2023/06/21 20:45:46;;;;;;;;;;;23.00;99.90;;;;;;8411278;28;19971;-73
2023/06/21 20:49:48;;;;;;;;;;;22.80;99.90;;;;;;8407686;28;20436;-74
2023/06/21 20:53:51;;;;;;;;;;;22.70;99.90;;;;;;8395997;28;20284;-73
2023/06/21 20:57:53;;;;;;;;;;;22.60;99.90;;;;;;8413129;28;19928;-73
2023/06/21 21:01:55;;;;;;;;;;;22.50;99.90;;;;;;8410686;28;19934;-74
2023/06/21 21:05:57;;;;;;;;;;;22.50;99.90;;;;;;8421481;28;19934;-73
2023/06/21 21:09:59;;;;;;;;;;;22.40;99.90;;;;;;8412314;28;19967;-73
2023/06/21 21:14:01;;;;;;;;;;;22.30;99.90;;;;;;8425359;28;19977;-73
2023/06/21 21:18:03;;;;;;;;;;;22.20;99.90;;;;;;8411738;28;19932;-73
2023/06/21 21:22:05;;;;;;;;;;;22.20;99.90;;;;;;8430576;28;19932;-73
2023/06/21 21:26:07;;;;;;;;;;;22.10;99.90;;;;;;8416272;28;20384;-73
2023/06/21 21:30:09;;;;;;;;;;;22.00;99.90;;;;;;8396001;28;19931;-73
2023/06/21 21:34:11;;;;;;;;;;;21.90;99.90;;;;;;8397805;28;19928;-73
2023/06/21 21:38:12;;;;;;;;;;;21.90;99.90;;;;;;8410075;28;19925;-73
2023/06/21 21:42:14;;;;;;;;;;;21.90;99.90;;;;;;8397328;28;20400;-73
2023/06/21 21:46:16;;;;;;;;;;;21.80;99.90;;;;;;8418313;28;19935;-73
2023/06/21 21:50:17;;;;;;;;;;;21.80;99.90;;;;;;8412990;28;19932;-73
2023/06/21 21:54:19;;;;;;;;;;;21.70;99.90;;;;;;8426712;28;20018;-73
2023/06/21 21:58:21;;;;;;;;;;;21.70;99.90;;;;;;8404522;28;19931;-73
2023/06/21 22:02:22;;;;;;;;;;;21.70;99.90;;;;;;8420107;28;20292;-73
2023/06/21 22:06:24;;;;;;;;;;;21.60;99.90;;;;;;8408229;28;19924;-73
2023/06/21 22:10:26;;;;;;;;;;;21.50;99.90;;;;;;8387712;28;19953;-72
2023/06/21 22:14:40;;;;;;;;;;;21.40;99.90;;;;;;8413285;28;20011;-72
2023/06/21 22:18:43;;;;;;;;;;;21.30;99.90;;;;;;8420653;27;20008;-72
2023/06/21 22:22:46;;;;;;;;;;;21.30;99.90;;;;;;8419311;28;20228;-73
2023/06/21 22:26:50;;;;;;;;;;;21.20;99.90;;;;;;8409651;28;19928;-73
2023/06/21 22:30:52;;;;;;;;;;;21.20;99.90;;;;;;8412084;28;19924;-73
2023/06/21 22:34:53;;;;;;;;;;;21.10;99.90;;;;;;8411472;28;19924;-73
2023/06/21 22:38:55;;;;;;;;;;;21.10;99.90;;;;;;8386932;28;20339;-73
2023/06/21 22:42:57;;;;;;;;;;;21.00;99.90;;;;;;8371315;28;19955;-72
2023/06/21 22:46:58;;;;;;;;;;;20.90;99.90;;;;;;8392066;28;20371;-73
2023/06/21 22:51:03;;;;;;;;;;;20.90;99.90;;;;;;8399517;28;20382;-73
2023/06/21 22:55:05;;;;;;;;;;;20.90;99.90;;;;;;8376300;28;19928;-72
2023/06/21 22:59:07;;;;;;;;;;;20.80;99.90;;;;;;8365254;28;19924;-72
2023/06/21 23:03:08;;;;;;;;;;;20.80;99.90;;;;;;8373021;28;19938;-72
2023/06/21 23:07:11;;;;;;;;;;;20.80;99.90;;;;;;8374133;28;19932;-72
2023/06/21 23:11:14;;;;;;;;;;;20.70;99.90;;;;;;8407807;28;19939;-73
2023/06/21 23:15:18;;;;;;;;;;;20.60;99.90;;;;;;8363715;28;19932;-73
2023/06/21 23:19:20;;;;;;;;;;;20.60;99.90;;;;;;8377285;28;19924;-73
2023/06/21 23:23:21;;;;;;;;;;;20.50;99.90;;;;;;8391059;28;19933;-72
2023/06/21 23:27:23;;;;;;;;;;;20.50;99.90;;;;;;8394630;28;20379;-73
2023/06/21 23:31:26;;;;;;;;;;;20.40;99.90;;;;;;8391432;28;19932;-73
2023/06/21 23:35:27;;;;;;;;;;;20.30;99.90;;;;;;8392494;28;19928;-73
2023/06/21 23:39:30;;;;;;;;;;;20.20;99.90;;;;;;8403573;28;20284;-73